WMT411 LATI-ESMS
Flight info
| Callsign | WMT411 |
|---|---|
| Flight time | 2h 23m |
| Altitude | 36000 |
| Route | INLOT DCT RETRA DCT GACMO DCT OBUTI DCT INSAX DCT LOKVU DCT ODLIV DCT HDO M725 KOGIM M44 ARGAD Z400 BAKLI |
| Aircraft | A321/M-SDE1E2E3FGIJ1J4RWXY/LB1 |
Departure
| Time | 2026-05-04 06:20 |
|---|---|
| Airport | Tirana International Airport Mother Teresa (LATI) |
Arrival
| Time | 2026-05-04 08:43 |
|---|---|
| Airport | Malmö Sturup Airport (ESMS) |
| Time | Latitude | Longitude | Altitude | Speed | Heading |
|---|---|---|---|---|---|
| 2026-05-04 05:55 | 41.41988 | 19.71511 | 119 ft | 0 kts | 265° |
| 2026-05-04 06:14 | 41.41967 | 19.71578 | 119 ft | 3 kts | 352° |
| 2026-05-04 06:14 | 41.41964 | 19.71578 | 119 ft | 0 kts | 354° |
| 2026-05-04 06:16 | 41.41965 | 19.71578 | 119 ft | 0 kts | 354° |
| 2026-05-04 06:16 | 41.41998 | 19.71574 | 120 ft | 9 kts | 354° |
| 2026-05-04 06:16 | 41.42082 | 19.71565 | 118 ft | 15 kts | 357° |
| 2026-05-04 06:16 | 41.42205 | 19.71553 | 120 ft | 21 kts | 358° |
| 2026-05-04 06:17 | 41.42366 | 19.71532 | 115 ft | 25 kts | 353° |
| 2026-05-04 06:17 | 41.42532 | 19.71506 | 116 ft | 23 kts | 354° |
| 2026-05-04 06:17 | 41.42655 | 19.71522 | 114 ft | 15 kts | 51° |
| 2026-05-04 06:17 | 41.42682 | 19.71663 | 115 ft | 16 kts | 81° |
| 2026-05-04 06:18 | 41.42687 | 19.71817 | 117 ft | 17 kts | 98° |
| 2026-05-04 06:18 | 41.42586 | 19.71906 | 117 ft | 31 kts | 173° |
| 2026-05-04 06:18 | 41.42111 | 19.71972 | 121 ft | 104 kts | 174° |
| 2026-05-04 06:20 | 41.33372 | 19.73125 | 2521 ft | 249 kts | 174° |
| 2026-05-04 06:20 | 41.31605 | 19.73359 | 3136 ft | 260 kts | 174° |
| 2026-05-04 06:21 | 41.24243 | 19.73018 | 6073 ft | 281 kts | 222° |
| 2026-05-04 06:21 | 41.23151 | 19.70914 | 6754 ft | 280 kts | 257° |
| 2026-05-04 06:22 | 41.23107 | 19.68383 | 7399 ft | 275 kts | 290° |
| 2026-05-04 06:22 | 41.24108 | 19.66289 | 8082 ft | 270 kts | 324° |
| 2026-05-04 06:25 | 41.51399 | 19.58888 | 16071 ft | 338 kts | 350° |
| 2026-05-04 06:25 | 41.53734 | 19.58214 | 16706 ft | 340 kts | 350° |
| 2026-05-04 06:26 | 41.56029 | 19.57552 | 17314 ft | 343 kts | 350° |
| 2026-05-04 06:26 | 41.58371 | 19.56874 | 17915 ft | 346 kts | 350° |
| 2026-05-04 06:26 | 41.60735 | 19.56188 | 18509 ft | 349 kts | 350° |
| 2026-05-04 06:26 | 41.63118 | 19.55497 | 19039 ft | 352 kts | 350° |
| 2026-05-04 06:27 | 41.72800 | 19.52673 | 21201 ft | 361 kts | 349° |
| 2026-05-04 06:28 | 41.75261 | 19.51955 | 21738 ft | 363 kts | 349° |
| 2026-05-04 06:28 | 41.77741 | 19.51233 | 22251 ft | 366 kts | 349° |
| 2026-05-04 06:28 | 41.80239 | 19.50505 | 22764 ft | 369 kts | 349° |
| 2026-05-04 06:28 | 41.82752 | 19.49771 | 23268 ft | 371 kts | 349° |
| 2026-05-04 06:29 | 41.85282 | 19.49031 | 23755 ft | 373 kts | 348° |
| 2026-05-04 06:29 | 41.87826 | 19.48289 | 24107 ft | 376 kts | 348° |
| 2026-05-04 06:29 | 41.90390 | 19.47538 | 24531 ft | 377 kts | 348° |
| 2026-05-04 06:29 | 41.92962 | 19.46786 | 24958 ft | 379 kts | 348° |
| 2026-05-04 06:30 | 41.95538 | 19.46032 | 25369 ft | 380 kts | 348° |
| 2026-05-04 06:30 | 41.98126 | 19.45222 | 25707 ft | 383 kts | 344° |
| 2026-05-04 06:30 | 42.00656 | 19.44052 | 26073 ft | 386 kts | 341° |
| 2026-05-04 06:30 | 42.03192 | 19.42841 | 26462 ft | 387 kts | 341° |
| 2026-05-04 06:31 | 42.05736 | 19.41628 | 26836 ft | 388 kts | 341° |
| 2026-05-04 06:31 | 42.08291 | 19.40417 | 27210 ft | 390 kts | 341° |
| 2026-05-04 06:31 | 42.10858 | 19.39204 | 27590 ft | 392 kts | 341° |
| 2026-05-04 06:31 | 42.13436 | 19.37982 | 27967 ft | 393 kts | 341° |
| 2026-05-04 06:32 | 42.16021 | 19.36754 | 28344 ft | 395 kts | 341° |
| 2026-05-04 06:33 | 42.33343 | 19.24724 | 30662 ft | 409 kts | 330° |
| 2026-05-04 06:34 | 42.35767 | 19.22690 | 30954 ft | 411 kts | 329° |
| 2026-05-04 06:34 | 42.38195 | 19.20649 | 31280 ft | 411 kts | 329° |
| 2026-05-04 06:34 | 42.40617 | 19.18613 | 31673 ft | 410 kts | 330° |
| 2026-05-04 06:34 | 42.43039 | 19.16578 | 32034 ft | 410 kts | 330° |
| 2026-05-04 06:35 | 42.45458 | 19.14544 | 32411 ft | 409 kts | 329° |
| 2026-05-04 06:36 | 42.62280 | 19.00334 | 34784 ft | 406 kts | 329° |
| 2026-05-04 06:37 | 42.64674 | 18.98308 | 35043 ft | 406 kts | 329° |
| 2026-05-04 06:37 | 42.67071 | 18.96274 | 35316 ft | 406 kts | 329° |
| 2026-05-04 06:37 | 42.69470 | 18.94234 | 35579 ft | 406 kts | 329° |
| 2026-05-04 06:37 | 42.71868 | 18.92195 | 35850 ft | 407 kts | 329° |
| 2026-05-04 06:38 | 42.74267 | 18.90155 | 36090 ft | 407 kts | 329° |
| 2026-05-04 06:38 | 42.76671 | 18.88109 | 36172 ft | 407 kts | 329° |
| 2026-05-04 06:40 | 42.95775 | 18.71764 | 36187 ft | 405 kts | 328° |
| 2026-05-04 06:40 | 43.00552 | 18.67666 | 36187 ft | 406 kts | 328° |
| 2026-05-04 06:41 | 43.05331 | 18.63552 | 36191 ft | 406 kts | 328° |
| 2026-05-04 06:41 | 43.10114 | 18.59422 | 36207 ft | 407 kts | 328° |
| 2026-05-04 06:42 | 43.14936 | 18.55378 | 36200 ft | 407 kts | 334° |
| 2026-05-04 06:44 | 43.34475 | 18.42378 | 36191 ft | 408 kts | 334° |
| 2026-05-04 06:44 | 43.39575 | 18.38963 | 36198 ft | 408 kts | 334° |
| 2026-05-04 06:45 | 43.44683 | 18.35533 | 36204 ft | 408 kts | 334° |
| 2026-05-04 06:45 | 43.49791 | 18.32105 | 36211 ft | 408 kts | 334° |
| 2026-05-04 06:46 | 43.54865 | 18.28690 | 36214 ft | 409 kts | 334° |
| 2026-05-04 06:46 | 43.59981 | 18.25251 | 36230 ft | 409 kts | 334° |
| 2026-05-04 06:48 | 43.80447 | 18.11393 | 36237 ft | 410 kts | 334° |
| 2026-05-04 06:50 | 44.00707 | 17.97571 | 36202 ft | 410 kts | 333° |
| 2026-05-04 06:51 | 44.05835 | 17.94046 | 36205 ft | 411 kts | 333° |
| 2026-05-04 06:51 | 44.10961 | 17.90526 | 36204 ft | 411 kts | 333° |
| 2026-05-04 06:52 | 44.16091 | 17.87002 | 36209 ft | 411 kts | 333° |
| 2026-05-04 06:52 | 44.21194 | 17.83492 | 36211 ft | 412 kts | 333° |
| 2026-05-04 06:53 | 44.26328 | 17.79946 | 36201 ft | 412 kts | 333° |
| 2026-05-04 06:53 | 44.31465 | 17.76389 | 36191 ft | 412 kts | 333° |
| 2026-05-04 06:54 | 44.36607 | 17.72821 | 36184 ft | 413 kts | 333° |
| 2026-05-04 06:54 | 44.41755 | 17.69255 | 36193 ft | 413 kts | 333° |
| 2026-05-04 06:55 | 44.46901 | 17.65662 | 36184 ft | 414 kts | 333° |
| 2026-05-04 06:55 | 44.52054 | 17.62054 | 36192 ft | 414 kts | 333° |
| 2026-05-04 06:57 | 44.72714 | 17.47579 | 36174 ft | 416 kts | 333° |
| 2026-05-04 06:58 | 44.77895 | 17.43923 | 36181 ft | 417 kts | 333° |
| 2026-05-04 06:58 | 44.83071 | 17.40260 | 36187 ft | 417 kts | 333° |
| 2026-05-04 06:59 | 44.88259 | 17.36589 | 36162 ft | 417 kts | 332° |
| 2026-05-04 06:59 | 44.93449 | 17.32913 | 36161 ft | 418 kts | 332° |
| 2026-05-04 07:01 | 45.14257 | 17.18096 | 36182 ft | 419 kts | 332° |
| 2026-05-04 07:02 | 45.19467 | 17.14363 | 36157 ft | 420 kts | 332° |
| 2026-05-04 07:02 | 45.24682 | 17.10612 | 36165 ft | 420 kts | 332° |
| 2026-05-04 07:03 | 45.29903 | 17.06854 | 36164 ft | 421 kts | 332° |
| 2026-05-04 07:03 | 45.35133 | 17.03093 | 36163 ft | 422 kts | 332° |
| 2026-05-04 07:04 | 45.40368 | 16.99313 | 36163 ft | 422 kts | 332° |
| 2026-05-04 07:04 | 45.45606 | 16.95518 | 36164 ft | 423 kts | 332° |
| 2026-05-04 07:05 | 45.50813 | 16.91734 | 36152 ft | 423 kts | 332° |
| 2026-05-04 07:05 | 45.56055 | 16.87922 | 36155 ft | 423 kts | 332° |
| 2026-05-04 07:06 | 45.63922 | 16.82202 | 36156 ft | 423 kts | 332° |
| 2026-05-04 07:07 | 45.69171 | 16.78374 | 36156 ft | 423 kts | 331° |
| 2026-05-04 07:09 | 45.90149 | 16.62933 | 36151 ft | 424 kts | 331° |
| 2026-05-04 07:09 | 45.95401 | 16.59057 | 36152 ft | 425 kts | 331° |
| 2026-05-04 07:10 | 46.00657 | 16.55177 | 36152 ft | 425 kts | 331° |
| 2026-05-04 07:12 | 46.21701 | 16.39509 | 36133 ft | 426 kts | 331° |
| 2026-05-04 07:12 | 46.26972 | 16.35575 | 36133 ft | 426 kts | 331° |
| 2026-05-04 07:13 | 46.32244 | 16.31619 | 36131 ft | 427 kts | 331° |
| 2026-05-04 07:13 | 46.37574 | 16.27824 | 36124 ft | 428 kts | 338° |
| 2026-05-04 07:14 | 46.52174 | 16.23118 | 36119 ft | 431 kts | 346° |
| 2026-05-04 07:15 | 46.58050 | 16.21347 | 36126 ft | 431 kts | 346° |
| 2026-05-04 07:15 | 46.63891 | 16.19567 | 36124 ft | 432 kts | 346° |
| 2026-05-04 07:16 | 46.69770 | 16.17786 | 36126 ft | 432 kts | 346° |
| 2026-05-04 07:16 | 46.75655 | 16.16004 | 36130 ft | 432 kts | 346° |
| 2026-05-04 07:17 | 46.81538 | 16.14214 | 36125 ft | 432 kts | 346° |
| 2026-05-04 07:17 | 46.87422 | 16.12413 | 36131 ft | 432 kts | 346° |
| 2026-05-04 07:18 | 46.93304 | 16.10606 | 36127 ft | 432 kts | 346° |
| 2026-05-04 07:18 | 46.99193 | 16.08812 | 36121 ft | 432 kts | 346° |
| 2026-05-04 07:19 | 47.05159 | 16.07622 | 36124 ft | 434 kts | 353° |
| 2026-05-04 07:19 | 47.11175 | 16.06856 | 36126 ft | 434 kts | 353° |
| 2026-05-04 07:20 | 47.17195 | 16.06081 | 36121 ft | 434 kts | 353° |
| 2026-05-04 07:20 | 47.23219 | 16.05314 | 36114 ft | 434 kts | 353° |
| 2026-05-04 07:22 | 47.47312 | 16.02207 | 36093 ft | 435 kts | 353° |
| 2026-05-04 07:23 | 47.53338 | 16.01418 | 36085 ft | 435 kts | 353° |
| 2026-05-04 07:23 | 47.59377 | 16.00633 | 36083 ft | 436 kts | 353° |
| 2026-05-04 07:24 | 47.65423 | 15.99844 | 36073 ft | 436 kts | 353° |
| 2026-05-04 07:24 | 47.71465 | 15.99055 | 36070 ft | 436 kts | 353° |
| 2026-05-04 07:26 | 47.95617 | 15.95886 | 36062 ft | 436 kts | 353° |
| 2026-05-04 07:27 | 48.01663 | 15.95082 | 36058 ft | 436 kts | 353° |
| 2026-05-04 07:27 | 48.07703 | 15.94270 | 36057 ft | 436 kts | 352° |
| 2026-05-04 07:28 | 48.13749 | 15.93464 | 36052 ft | 437 kts | 352° |
| 2026-05-04 07:28 | 48.19808 | 15.92662 | 36054 ft | 437 kts | 352° |
| 2026-05-04 07:29 | 48.25870 | 15.91856 | 36051 ft | 438 kts | 352° |
| 2026-05-04 07:29 | 48.31935 | 15.91044 | 36050 ft | 438 kts | 352° |
| 2026-05-04 07:30 | 48.36984 | 15.90364 | 36051 ft | 438 kts | 352° |
| 2026-05-04 07:30 | 48.43048 | 15.89535 | 36063 ft | 438 kts | 352° |
| 2026-05-04 07:31 | 48.49119 | 15.88716 | 36057 ft | 438 kts | 352° |
| 2026-05-04 07:33 | 48.73446 | 15.85420 | 36058 ft | 439 kts | 352° |
| 2026-05-04 07:33 | 48.79536 | 15.84594 | 36054 ft | 440 kts | 352° |
| 2026-05-04 07:34 | 48.85632 | 15.83721 | 36055 ft | 439 kts | 349° |
| 2026-05-04 07:34 | 48.91451 | 15.81188 | 36059 ft | 434 kts | 336° |
| 2026-05-04 07:35 | 48.97099 | 15.77881 | 36054 ft | 435 kts | 336° |
| 2026-05-04 07:35 | 49.02754 | 15.74588 | 36051 ft | 435 kts | 336° |
| 2026-05-04 07:36 | 49.08408 | 15.71281 | 36051 ft | 435 kts | 336° |
| 2026-05-04 07:38 | 49.31018 | 15.57948 | 36051 ft | 437 kts | 336° |
| 2026-05-04 07:38 | 49.36692 | 15.54588 | 36050 ft | 437 kts | 336° |
| 2026-05-04 07:39 | 49.42365 | 15.51209 | 36053 ft | 437 kts | 335° |
| 2026-05-04 07:39 | 49.48039 | 15.47821 | 36047 ft | 438 kts | 335° |
| 2026-05-04 07:40 | 49.53722 | 15.44424 | 36049 ft | 438 kts | 335° |
| 2026-05-04 07:40 | 49.59407 | 15.41016 | 36042 ft | 438 kts | 335° |
| 2026-05-04 07:41 | 49.65095 | 15.37604 | 36049 ft | 439 kts | 335° |
| 2026-05-04 07:41 | 49.70788 | 15.34180 | 36044 ft | 439 kts | 335° |
| 2026-05-04 07:42 | 49.76472 | 15.30747 | 36036 ft | 439 kts | 335° |
| 2026-05-04 07:42 | 49.82165 | 15.27297 | 36036 ft | 439 kts | 335° |
| 2026-05-04 07:43 | 49.87821 | 15.23865 | 36047 ft | 439 kts | 335° |
| 2026-05-04 07:43 | 49.93512 | 15.20406 | 36034 ft | 439 kts | 335° |
| 2026-05-04 07:44 | 49.99204 | 15.16937 | 36038 ft | 439 kts | 335° |
| 2026-05-04 07:44 | 50.04891 | 15.13459 | 36028 ft | 440 kts | 335° |
| 2026-05-04 07:45 | 50.10581 | 15.09969 | 36027 ft | 440 kts | 335° |
| 2026-05-04 07:45 | 50.16278 | 15.06457 | 36028 ft | 440 kts | 334° |
| 2026-05-04 07:46 | 50.21973 | 15.02944 | 36035 ft | 440 kts | 335° |
| 2026-05-04 07:46 | 50.27669 | 14.99432 | 36036 ft | 440 kts | 335° |
| 2026-05-04 07:47 | 50.33370 | 14.95913 | 36033 ft | 440 kts | 335° |
| 2026-05-04 07:49 | 50.55137 | 14.79082 | 36031 ft | 434 kts | 321° |
| 2026-05-04 07:49 | 50.60080 | 14.73597 | 36039 ft | 435 kts | 321° |
| 2026-05-04 07:50 | 50.65016 | 14.68100 | 36054 ft | 435 kts | 320° |
| 2026-05-04 07:50 | 50.69956 | 14.62592 | 36052 ft | 435 kts | 320° |
| 2026-05-04 07:51 | 50.74899 | 14.57067 | 36047 ft | 435 kts | 320° |
| 2026-05-04 07:51 | 50.79840 | 14.51526 | 36044 ft | 435 kts | 320° |
| 2026-05-04 07:52 | 50.84746 | 14.46011 | 36044 ft | 436 kts | 320° |
| 2026-05-04 07:52 | 50.89699 | 14.40469 | 36044 ft | 437 kts | 324° |
| 2026-05-04 07:54 | 51.13968 | 14.32741 | 36054 ft | 451 kts | 349° |
| 2026-05-04 07:55 | 51.20198 | 14.31491 | 36056 ft | 451 kts | 348° |
| 2026-05-04 07:55 | 51.26432 | 14.30241 | 36048 ft | 451 kts | 348° |
| 2026-05-04 07:56 | 51.32576 | 14.29018 | 36042 ft | 452 kts | 348° |
| 2026-05-04 07:56 | 51.38814 | 14.27776 | 36041 ft | 452 kts | 348° |
| 2026-05-04 07:57 | 51.45029 | 14.26529 | 36048 ft | 452 kts | 348° |
| 2026-05-04 07:57 | 51.51273 | 14.25277 | 36038 ft | 453 kts | 348° |
| 2026-05-04 07:58 | 51.57510 | 14.24013 | 36037 ft | 453 kts | 348° |
| 2026-05-04 07:58 | 51.63672 | 14.22767 | 36034 ft | 453 kts | 348° |
| 2026-05-04 07:59 | 51.69933 | 14.21499 | 36040 ft | 453 kts | 348° |
| 2026-05-04 07:59 | 51.76194 | 14.20230 | 36031 ft | 453 kts | 348° |
| 2026-05-04 08:00 | 51.82180 | 14.19019 | 36027 ft | 454 kts | 348° |
| 2026-05-04 08:02 | 52.06927 | 14.13952 | 36024 ft | 455 kts | 348° |
| 2026-05-04 08:02 | 52.13206 | 14.12666 | 36017 ft | 455 kts | 348° |
| 2026-05-04 08:03 | 52.19487 | 14.11384 | 36028 ft | 455 kts | 347° |
| 2026-05-04 08:03 | 52.25765 | 14.10072 | 36015 ft | 455 kts | 347° |
| 2026-05-04 08:04 | 52.32046 | 14.08754 | 36006 ft | 455 kts | 347° |
| 2026-05-04 08:04 | 52.38325 | 14.07430 | 36005 ft | 455 kts | 347° |
| 2026-05-04 08:05 | 52.44610 | 14.06110 | 36013 ft | 455 kts | 347° |
| 2026-05-04 08:05 | 52.50893 | 14.04793 | 36010 ft | 456 kts | 347° |
| 2026-05-04 08:06 | 52.57146 | 14.03473 | 36006 ft | 456 kts | 347° |
| 2026-05-04 08:06 | 52.63481 | 14.02134 | 35997 ft | 456 kts | 347° |
| 2026-05-04 08:08 | 52.88546 | 13.96809 | 35985 ft | 456 kts | 347° |
| 2026-05-04 08:11 | 53.16883 | 13.91316 | 35977 ft | 456 kts | 347° |
| 2026-05-04 08:11 | 53.26143 | 13.88201 | 35983 ft | 453 kts | 342° |
| 2026-05-04 08:12 | 53.32317 | 13.86029 | 35977 ft | 454 kts | 342° |
| 2026-05-04 08:12 | 53.38501 | 13.83867 | 35971 ft | 454 kts | 342° |
| 2026-05-04 08:13 | 53.44691 | 13.81678 | 35984 ft | 455 kts | 342° |
| 2026-05-04 08:13 | 53.50899 | 13.79475 | 35953 ft | 457 kts | 342° |
| 2026-05-04 08:14 | 53.57087 | 13.77272 | 35950 ft | 459 kts | 342° |
| 2026-05-04 08:16 | 53.82145 | 13.68305 | 35977 ft | 462 kts | 342° |
| 2026-05-04 08:16 | 53.88435 | 13.66046 | 35966 ft | 462 kts | 342° |
| 2026-05-04 08:17 | 53.94745 | 13.63838 | 35964 ft | 464 kts | 344° |
| 2026-05-04 08:17 | 54.01144 | 13.62135 | 35977 ft | 467 kts | 346° |
| 2026-05-04 08:19 | 54.25826 | 13.55962 | 35978 ft | 467 kts | 345° |
| 2026-05-04 08:20 | 54.32257 | 13.54257 | 35966 ft | 468 kts | 345° |
| 2026-05-04 08:20 | 54.38699 | 13.52599 | 35956 ft | 469 kts | 346° |
| 2026-05-04 08:21 | 54.45158 | 13.50994 | 35952 ft | 469 kts | 346° |
| 2026-05-04 08:21 | 54.51659 | 13.49804 | 35979 ft | 477 kts | 358° |
| 2026-05-04 08:22 | 54.58254 | 13.50769 | 35953 ft | 480 kts | 0° |
| 2026-05-04 08:24 | 54.81212 | 13.54470 | 32540 ft | 461 kts | 358° |
| 2026-05-04 08:24 | 54.84405 | 13.55172 | 32209 ft | 466 kts | 8° |
| 2026-05-04 08:24 | 54.87473 | 13.57114 | 31575 ft | 474 kts | 25° |
| 2026-05-04 08:24 | 54.90134 | 13.60437 | 30773 ft | 472 kts | 43° |
| 2026-05-04 08:25 | 54.92204 | 13.64833 | 29982 ft | 469 kts | 53° |
| 2026-05-04 08:25 | 54.94030 | 13.69490 | 29074 ft | 464 kts | 54° |
| 2026-05-04 08:25 | 54.95815 | 13.74121 | 28189 ft | 457 kts | 54° |
| 2026-05-04 08:25 | 54.97573 | 13.78678 | 27293 ft | 450 kts | 54° |
| 2026-05-04 08:26 | 54.99309 | 13.83175 | 26460 ft | 444 kts | 54° |
| 2026-05-04 08:27 | 55.07827 | 14.14635 | 20700 ft | 396 kts | 108° |
| 2026-05-04 08:28 | 55.06871 | 14.19079 | 19417 ft | 388 kts | 126° |
| 2026-05-04 08:28 | 55.05276 | 14.22759 | 18337 ft | 375 kts | 142° |
| 2026-05-04 08:28 | 55.03268 | 14.25510 | 17190 ft | 361 kts | 156° |
| 2026-05-04 08:28 | 55.01029 | 14.27253 | 16100 ft | 346 kts | 171° |
| 2026-05-04 08:29 | 54.98762 | 14.27925 | 15668 ft | 313 kts | 185° |
| 2026-05-04 08:29 | 54.96716 | 14.27770 | 15592 ft | 277 kts | 196° |
| 2026-05-04 08:29 | 54.94902 | 14.26995 | 15533 ft | 270 kts | 206° |
| 2026-05-04 08:31 | 54.90151 | 14.09492 | 13931 ft | 281 kts | 310° |
| 2026-05-04 08:33 | 55.00423 | 13.94377 | 11567 ft | 271 kts | 313° |
| 2026-05-04 08:33 | 55.01856 | 13.92249 | 11243 ft | 270 kts | 313° |
| 2026-05-04 08:35 | 55.11822 | 13.77406 | 9247 ft | 275 kts | 314° |
| 2026-05-04 08:35 | 55.13278 | 13.75242 | 8767 ft | 276 kts | 314° |
| 2026-05-04 08:35 | 55.14725 | 13.73093 | 8487 ft | 271 kts | 314° |
| 2026-05-04 08:35 | 55.16160 | 13.70959 | 8105 ft | 270 kts | 315° |
| 2026-05-04 08:37 | 55.24542 | 13.58388 | 5396 ft | 258 kts | 315° |
| 2026-05-04 08:37 | 55.25897 | 13.56353 | 4694 ft | 254 kts | 316° |
| 2026-05-04 08:37 | 55.27210 | 13.54381 | 4334 ft | 248 kts | 316° |
| 2026-05-04 08:38 | 55.28530 | 13.52385 | 3958 ft | 251 kts | 316° |
| 2026-05-04 08:38 | 55.29839 | 13.50405 | 3740 ft | 244 kts | 316° |
| 2026-05-04 08:38 | 55.31094 | 13.48513 | 3644 ft | 232 kts | 316° |
| 2026-05-04 08:40 | 55.39981 | 13.40414 | 2700 ft | 212 kts | 349° |
| 2026-05-04 08:40 | 55.41442 | 13.40119 | 2417 ft | 210 kts | 348° |
| 2026-05-04 08:40 | 55.42865 | 13.39830 | 2155 ft | 199 kts | 348° |
| 2026-05-04 08:41 | 55.44163 | 13.39569 | 1886 ft | 175 kts | 348° |
| 2026-05-04 08:41 | 55.45270 | 13.39346 | 1657 ft | 149 kts | 347° |
| 2026-05-04 08:41 | 55.46257 | 13.39141 | 1453 ft | 138 kts | 347° |
| 2026-05-04 08:41 | 55.47203 | 13.38944 | 1271 ft | 136 kts | 347° |
| 2026-05-04 08:42 | 55.48144 | 13.38749 | 1082 ft | 136 kts | 347° |
| 2026-05-04 08:42 | 55.49082 | 13.38555 | 906 ft | 136 kts | 349° |
| 2026-05-04 08:42 | 55.50008 | 13.38365 | 728 ft | 134 kts | 347° |
| 2026-05-04 08:42 | 55.50934 | 13.38175 | 564 ft | 133 kts | 347° |
| 2026-05-04 08:43 | 55.51853 | 13.37982 | 402 ft | 132 kts | 347° |
| 2026-05-04 08:43 | 55.52761 | 13.37792 | 238 ft | 126 kts | 350° |
| 2026-05-04 08:43 | 55.53469 | 13.37645 | 234 ft | 78 kts | 353° |
| 2026-05-04 08:43 | 55.53839 | 13.37572 | 238 ft | 31 kts | 354° |
| 2026-05-04 08:44 | 55.54051 | 13.37533 | 239 ft | 30 kts | 353° |
| 2026-05-04 08:44 | 55.54224 | 13.37497 | 238 ft | 18 kts | 352° |
| 2026-05-04 08:46 | 55.54163 | 13.36821 | 236 ft | 1 kts | 261° |
| 2026-05-04 08:46 | 55.54161 | 13.36792 | 236 ft | 3 kts | 263° |
| 2026-05-04 08:46 | 55.54158 | 13.36740 | 236 ft | 6 kts | 265° |
| 2026-05-04 08:46 | 55.54156 | 13.36675 | 236 ft | 5 kts | 272° |
| 2026-05-04 08:47 | 55.54178 | 13.36644 | 236 ft | 4 kts | 339° |
| 2026-05-04 08:47 | 55.54199 | 13.36637 | 236 ft | 2 kts | 352° |
| 2026-05-04 08:47 | 55.54210 | 13.36635 | 236 ft | 2 kts | 353° |
| 2026-05-04 08:47 | 55.54217 | 13.36633 | 236 ft | 0 kts | 353° |